Time;durP1;ratioP1;P1;durP2;ratioP2;P2;SDS_P1;SDS_P2;PMS_P1;PMS_P2;Temp;Humidity;BMP_temperature;BMP_pressure;BME280_temperature;BME280_humidity;BME280_pressure;Samples;Min_cycle;Max_cycle;Signal;HPM_P1;HPM_P2
2023/06/03 00:01:36;;;;;;;2.08;1.48;;;12.50;93.60;;;;;;5024064;28;20505;-61
2023/06/03 00:04:04;;;;;;;2.42;1.08;;;12.50;93.50;;;;;;5006418;28;20109;-60
2023/06/03 00:06:29;;;;;;;2.13;1.10;;;12.40;93.30;;;;;;5032862;28;20783;-61
2023/06/03 00:08:55;;;;;;;1.80;1.00;;;12.50;93.10;;;;;;5029986;28;20049;-61
2023/06/03 00:11:21;;;;;;;6.10;1.10;;;12.40;92.90;;;;;;5037494;28;20485;-61
2023/06/03 00:13:47;;;;;;;1.25;0.80;;;12.40;92.70;;;;;;5012128;28;20055;-60
2023/06/03 00:16:13;;;;;;;1.00;0.90;;;12.40;92.70;;;;;;5028318;28;20072;-61
2023/06/03 00:18:39;;;;;;;1.23;0.90;;;12.30;92.60;;;;;;5024986;28;20041;-60
2023/06/03 00:21:05;;;;;;;2.65;1.08;;;12.30;92.60;;;;;;5028267;28;22019;-60
2023/06/03 00:23:31;;;;;;;8.80;1.27;;;12.30;92.50;;;;;;5030598;28;21934;-60
2023/06/03 00:25:57;;;;;;;4.18;1.15;;;12.30;92.40;;;;;;5022880;28;20137;-62
2023/06/03 00:28:23;;;;;;;2.85;1.05;;;12.30;92.20;;;;;;5023913;28;20064;-60
2023/06/03 00:30:49;;;;;;;3.03;1.00;;;12.20;92.20;;;;;;5014126;28;20037;-60
2023/06/03 00:33:15;;;;;;;2.17;0.90;;;12.20;92.20;;;;;;5023753;28;20464;-63
2023/06/03 00:35:40;;;;;;;2.30;1.10;;;12.20;92.10;;;;;;5026123;28;20409;-60
2023/06/03 00:38:06;;;;;;;2.30;1.00;;;12.20;92.00;;;;;;5032285;28;20052;-60
2023/06/03 00:40:32;;;;;;;1.70;1.02;;;12.20;92.00;;;;;;5034650;28;20156;-60
2023/06/03 00:42:58;;;;;;;2.78;1.10;;;12.20;92.10;;;;;;5032659;28;20064;-60
2023/06/03 00:45:23;;;;;;;3.90;1.00;;;12.10;92.10;;;;;;5034661;28;20565;-60
2023/06/03 00:47:50;;;;;;;5.45;1.10;;;12.10;92.20;;;;;;5035226;28;20094;-62
2023/06/03 00:50:16;;;;;;;2.25;0.98;;;12.10;92.10;;;;;;5032939;28;20045;-61
2023/06/03 00:52:43;;;;;;;1.92;1.10;;;12.10;92.00;;;;;;5031067;28;20079;-60
2023/06/03 00:55:09;;;;;;;5.22;1.45;;;12.00;92.10;;;;;;5029687;28;20083;-62
2023/06/03 00:57:35;;;;;;;1.75;0.95;;;12.00;92.10;;;;;;5030670;28;20037;-60
2023/06/03 01:00:01;;;;;;;1.75;1.08;;;12.00;92.20;;;;;;5031039;28;20041;-61
2023/06/03 01:02:27;;;;;;;1.42;0.90;;;11.90;92.30;;;;;;5028218;28;20124;-62
2023/06/03 01:04:57;;;;;;;3.13;1.17;;;11.90;92.40;;;;;;5000620;28;20040;-60
2023/06/03 01:07:37;;;;;;;3.22;0.80;;;11.90;92.50;;;;;;5015228;28;20045;-59
2023/06/03 01:10:27;;;;;;;1.48;0.98;;;11.80;92.50;;;;;;5035467;28;20053;-61
2023/06/03 01:13:04;;;;;;;3.10;1.20;;;11.80;92.70;;;;;;5033729;28;20103;-61
2023/06/03 01:15:34;;;;;;;1.73;1.27;;;11.80;92.80;;;;;;5027176;28;20227;-61
2023/06/03 01:18:06;;;;;;;2.28;1.17;;;11.80;92.90;;;;;;5033461;28;20137;-62
2023/06/03 01:20:34;;;;;;;2.22;1.17;;;11.80;93.00;;;;;;5034593;28;21739;-61
2023/06/03 01:23:23;;;;;;;2.78;1.10;;;11.70;93.00;;;;;;5031606;28;20138;-62
2023/06/03 01:25:56;;;;;;;1.08;0.93;;;11.70;92.90;;;;;;5033350;28;20071;-59
2023/06/03 01:28:23;;;;;;;2.53;1.30;;;11.70;92.90;;;;;;5037914;28;20045;-60
2023/06/03 01:30:50;;;;;;;2.00;1.00;;;11.70;92.90;;;;;;5027753;28;20132;-60
2023/06/03 01:33:19;;;;;;;2.45;1.25;;;11.70;92.90;;;;;;5031920;28;20047;-60
2023/06/03 01:35:46;;;;;;;2.60;1.10;;;11.70;92.90;;;;;;5025411;28;20505;-60
2023/06/03 01:38:12;;;;;;;3.17;1.02;;;11.70;93.10;;;;;;5021285;28;20667;-61
2023/06/03 01:40:39;;;;;;;2.65;1.10;;;11.60;93.10;;;;;;5036073;28;20599;-59
2023/06/03 01:43:05;;;;;;;2.75;1.05;;;11.60;93.20;;;;;;5033066;28;20044;-59
2023/06/03 01:45:31;;;;;;;3.05;1.17;;;11.60;93.40;;;;;;5030935;28;20045;-60
2023/06/03 01:47:57;;;;;;;1.70;0.95;;;11.50;93.60;;;;;;5014985;28;20040;-61
2023/06/03 01:50:23;;;;;;;2.95;1.00;;;11.50;93.80;;;;;;5032250;28;20041;-60
2023/06/03 01:52:49;;;;;;;3.33;1.23;;;11.50;94.00;;;;;;5031744;28;20058;-62
2023/06/03 01:55:15;;;;;;;3.40;1.40;;;11.40;94.00;;;;;;5031574;28;20111;-60
2023/06/03 01:57:41;;;;;;;1.95;1.30;;;11.40;94.10;;;;;;5011431;28;20428;-60
2023/06/03 02:00:09;;;;;;;3.92;1.20;;;11.40;94.20;;;;;;5032298;28;20046;-62
2023/06/03 02:02:35;;;;;;;4.07;1.30;;;11.40;94.30;;;;;;5031976;28;20100;-60
2023/06/03 02:05:01;;;;;;;2.22;1.25;;;11.40;94.40;;;;;;5031099;28;20049;-60
2023/06/03 02:07:30;;;;;;;2.65;1.10;;;11.40;94.70;;;;;;5030849;28;20393;-61
2023/06/03 02:09:56;;;;;;;2.90;1.17;;;11.30;94.70;;;;;;5033944;28;20046;-60
2023/06/03 02:12:23;;;;;;;3.25;1.10;;;11.30;94.90;;;;;;5033752;28;20047;-62
2023/06/03 02:14:53;;;;;;;2.60;1.30;;;11.30;95.00;;;;;;5032765;28;20056;-62
2023/06/03 02:17:22;;;;;;;1.58;1.10;;;11.30;95.20;;;;;;5037801;28;20048;-60
2023/06/03 02:19:48;;;;;;;1.67;1.15;;;11.30;95.40;;;;;;5019197;28;20045;-62
2023/06/03 02:22:15;;;;;;;3.05;1.30;;;11.20;95.60;;;;;;5036285;28;20046;-59
2023/06/03 02:24:40;;;;;;;2.42;1.17;;;11.20;95.90;;;;;;5034822;28;20955;-59
2023/06/03 02:27:08;;;;;;;1.92;1.20;;;11.20;96.10;;;;;;5019215;28;20052;-59
2023/06/03 02:29:34;;;;;;;1.58;1.13;;;11.10;96.30;;;;;;5036969;28;20049;-62
2023/06/03 02:32:00;;;;;;;3.30;1.30;;;11.10;96.40;;;;;;5020483;28;20508;-60
2023/06/03 02:34:26;;;;;;;2.25;1.20;;;11.10;96.50;;;;;;5035185;28;20066;-60
2023/06/03 02:36:52;;;;;;;3.00;1.17;;;11.10;96.70;;;;;;5034234;28;20467;-60
2023/06/03 02:39:19;;;;;;;6.10;1.60;;;11.00;96.90;;;;;;5022745;28;20045;-61
2023/06/03 02:41:49;;;;;;;2.47;1.30;;;11.00;97.10;;;;;;5034752;28;20071;-60
2023/06/03 02:44:16;;;;;;;4.57;1.63;;;11.00;97.30;;;;;;5020755;28;20041;-59
2023/06/03 02:46:42;;;;;;;4.55;1.23;;;10.90;97.30;;;;;;5034432;28;20048;-60
2023/06/03 02:49:08;;;;;;;2.55;1.30;;;10.90;97.40;;;;;;5034138;28;20051;-61
2023/06/03 02:51:36;;;;;;;5.43;1.40;;;10.90;97.50;;;;;;5038253;28;20029;-60
2023/06/03 02:54:02;;;;;;;2.50;1.70;;;10.90;97.60;;;;;;5036819;28;20045;-60
2023/06/03 02:56:28;;;;;;;1.75;1.35;;;10.90;97.70;;;;;;5036964;28;20052;-60
2023/06/03 02:58:54;;;;;;;3.88;1.42;;;10.80;97.80;;;;;;5041308;28;20032;-61
2023/06/03 03:01:21;;;;;;;2.45;1.45;;;10.80;97.80;;;;;;5033793;28;20516;-61
2023/06/03 03:03:47;;;;;;;2.55;1.30;;;10.80;98.00;;;;;;5020827;28;20087;-60
2023/06/03 03:06:19;;;;;;;7.13;1.60;;;10.80;98.00;;;;;;5034284;28;20056;-60
2023/06/03 03:08:48;;;;;;;2.20;1.15;;;10.70;98.10;;;;;;5037682;28;20046;-59
2023/06/03 03:11:15;;;;;;;5.10;1.48;;;10.70;98.20;;;;;;5020044;28;20073;-60
2023/06/03 03:13:41;;;;;;;3.90;1.48;;;10.70;98.20;;;;;;5017436;28;20056;-60
2023/06/03 03:16:08;;;;;;;3.70;1.80;;;10.60;98.30;;;;;;5027773;28;20432;-60
2023/06/03 03:18:34;;;;;;;3.15;1.50;;;10.60;98.30;;;;;;5028905;28;20041;-61
2023/06/03 03:20:59;;;;;;;4.15;1.13;;;10.60;98.40;;;;;;5033567;28;20048;-60
2023/06/03 03:23:27;;;;;;;4.45;1.50;;;10.50;98.40;;;;;;5029243;28;20107;-59
2023/06/03 03:25:53;;;;;;;2.97;1.50;;;10.50;98.50;;;;;;5018793;28;20049;-59
2023/06/03 03:28:19;;;;;;;3.17;1.27;;;10.50;98.70;;;;;;5045960;28;20073;-59
2023/06/03 03:30:46;;;;;;;4.40;1.20;;;10.40;98.80;;;;;;5030637;28;20688;-61
2023/06/03 03:33:15;;;;;;;3.15;1.40;;;10.40;98.90;;;;;;5015849;28;20041;-60
2023/06/03 03:35:40;;;;;;;3.75;1.73;;;10.40;99.40;;;;;;5032336;28;20508;-60
2023/06/03 03:38:07;;;;;;;2.05;1.40;;;10.30;99.30;;;;;;5035846;28;20041;-62
2023/06/03 03:40:37;;;;;;;3.20;1.55;;;10.30;99.40;;;;;;5030672;28;20078;-59
2023/06/03 03:43:03;;;;;;;1.98;1.50;;;10.20;99.80;;;;;;5031306;28;20042;-60
2023/06/03 03:45:32;;;;;;;2.05;1.48;;;10.20;99.70;;;;;;5029463;28;20744;-60
2023/06/03 03:48:06;;;;;;;2.35;1.40;;;10.20;99.90;;;;;;5029811;28;20065;-62
2023/06/03 03:50:39;;;;;;;2.25;1.35;;;10.10;99.90;;;;;;5032280;28;20103;-60
2023/06/03 03:53:07;;;;;;;3.03;1.63;;;10.20;99.90;;;;;;5031373;28;20040;-61
2023/06/03 03:55:57;;;;;;;4.82;1.60;;;10.20;99.90;;;;;;5028841;28;20095;-60
2023/06/03 03:58:39;;;;;;;1.50;1.38;;;10.20;99.90;;;;;;5027904;28;20049;-60
2023/06/03 04:01:17;;;;;;;6.10;1.80;;;10.20;99.90;;;;;;5029077;28;20052;-61
2023/06/03 04:03:52;;;;;;;5.30;1.30;;;10.30;99.90;;;;;;5026366;28;20053;-60
2023/06/03 04:06:32;;;;;;;2.60;1.50;;;10.20;99.90;;;;;;5031993;28;20090;-60
2023/06/03 04:08:58;;;;;;;3.30;1.60;;;10.30;99.90;;;;;;5021864;28;20071;-60
2023/06/03 04:11:38;;;;;;;3.55;1.58;;;10.30;99.90;;;;;;5030658;28;20519;-60
2023/06/03 04:14:08;;;;;;;4.28;1.50;;;10.30;99.90;;;;;;5025282;28;20041;-61
2023/06/03 04:16:55;;;;;;;3.28;1.70;;;10.40;99.90;;;;;;5026558;28;20530;-62
2023/06/03 04:19:33;;;;;;;6.32;1.67;;;10.40;99.90;;;;;;5012498;28;20057;-61
2023/06/03 04:22:03;;;;;;;2.08;1.48;;;10.40;99.80;;;;;;5020701;28;20080;-60
2023/06/03 04:24:29;;;;;;;8.60;1.40;;;10.50;99.80;;;;;;5031442;28;20123;-59
2023/06/03 04:26:54;;;;;;;5.03;1.80;;;10.50;99.70;;;;;;5034197;28;20448;-60
2023/06/03 04:29:20;;;;;;;3.88;1.50;;;10.50;99.60;;;;;;5030226;28;20079;-60
2023/06/03 04:31:46;;;;;;;2.30;1.38;;;10.60;99.60;;;;;;5011843;28;20049;-61
2023/06/03 04:34:12;;;;;;;4.38;1.70;;;10.60;99.60;;;;;;5033000;28;20041;-59
2023/06/03 04:36:37;;;;;;;2.08;1.40;;;10.70;99.50;;;;;;5010923;28;20503;-62
2023/06/03 04:39:08;;;;;;;3.20;1.67;;;10.70;99.40;;;;;;5031901;28;20037;-60
2023/06/03 04:41:37;;;;;;;2.78;1.77;;;10.80;99.30;;;;;;5032419;28;20141;-59
2023/06/03 04:44:03;;;;;;;3.45;1.40;;;10.80;99.20;;;;;;5032295;28;20077;-60
2023/06/03 04:46:30;;;;;;;1.98;1.48;;;10.90;99.10;;;;;;5011446;28;20048;-62
2023/06/03 04:48:57;;;;;;;1.90;1.20;;;10.90;99.10;;;;;;5027661;28;20136;-60
2023/06/03 04:51:27;;;;;;;2.40;1.52;;;11.00;99.00;;;;;;5032887;28;20632;-60
2023/06/03 04:53:55;;;;;;;7.97;1.30;;;11.00;98.90;;;;;;5031050;28;20044;-60
2023/06/03 04:56:21;;;;;;;4.18;1.70;;;11.00;98.90;;;;;;5029658;28;20040;-60
2023/06/03 04:58:47;;;;;;;2.95;1.65;;;11.10;98.80;;;;;;5031298;28;20040;-60
2023/06/03 05:01:13;;;;;;;3.90;1.52;;;11.10;98.80;;;;;;4997807;28;20040;-60
2023/06/03 05:03:39;;;;;;;3.00;1.40;;;11.20;98.80;;;;;;5027450;28;20041;-59
2023/06/03 05:06:10;;;;;;;3.42;1.50;;;11.20;98.70;;;;;;5029515;28;22144;-60
2023/06/03 05:08:39;;;;;;;4.63;1.33;;;11.30;98.70;;;;;;5030880;28;20495;-60
2023/06/03 05:11:05;;;;;;;3.78;1.50;;;11.30;98.70;;;;;;5029126;28;20043;-60
2023/06/03 05:13:31;;;;;;;2.45;1.50;;;11.30;98.60;;;;;;5027708;28;20184;-62
2023/06/03 05:15:57;;;;;;;4.13;1.58;;;11.30;98.60;;;;;;5027506;28;20091;-59
2023/06/03 05:18:23;;;;;;;2.40;1.25;;;11.30;98.70;;;;;;5035749;28;20049;-61
2023/06/03 05:20:49;;;;;;;3.05;1.30;;;11.40;98.70;;;;;;5031611;28;20567;-59
2023/06/03 05:23:15;;;;;;;1.60;1.25;;;11.40;98.70;;;;;;5030925;28;20037;-60
2023/06/03 05:25:41;;;;;;;5.90;1.40;;;11.40;98.70;;;;;;5017880;28;20052;-60
2023/06/03 05:28:07;;;;;;;3.47;1.38;;;11.40;98.70;;;;;;5023780;28;20045;-61
2023/06/03 05:30:32;;;;;;;3.40;1.40;;;11.50;98.90;;;;;;5028757;28;20483;-60
2023/06/03 05:32:58;;;;;;;3.90;1.40;;;11.50;98.90;;;;;;5027104;28;20052;-60
2023/06/03 05:35:24;;;;;;;3.65;1.30;;;11.50;98.90;;;;;;5029837;28;20056;-59
2023/06/03 05:37:50;;;;;;;2.40;1.30;;;11.60;98.80;;;;;;5001623;28;20041;-60
2023/06/03 05:40:15;;;;;;;5.75;1.50;;;11.60;98.70;;;;;;5032247;28;20077;-60
2023/06/03 05:42:41;;;;;;;3.70;1.50;;;11.70;98.70;;;;;;5029517;28;20088;-59
2023/06/03 05:45:08;;;;;;;2.63;1.40;;;11.70;98.60;;;;;;5044927;28;20106;-60
2023/06/03 05:47:33;;;;;;;2.92;1.30;;;11.80;98.50;;;;;;5031885;28;20041;-59
2023/06/03 05:50:00;;;;;;;4.00;1.40;;;11.90;98.40;;;;;;5031150;28;20055;-60
2023/06/03 05:52:26;;;;;;;2.60;1.30;;;11.90;98.20;;;;;;5030923;28;20051;-63
2023/06/03 05:54:51;;;;;;;3.65;1.20;;;12.00;98.10;;;;;;5034719;28;20056;-62
2023/06/03 05:57:17;;;;;;;4.10;1.20;;;12.10;97.90;;;;;;5028399;28;20037;-60
2023/06/03 05:59:45;;;;;;;3.67;1.17;;;12.20;97.70;;;;;;5029783;28;20162;-59
2023/06/03 06:02:11;;;;;;;2.17;1.10;;;12.20;97.50;;;;;;5032498;28;20091;-63
2023/06/03 06:04:37;;;;;;;2.40;1.17;;;12.30;97.40;;;;;;5021705;28;20048;-61
2023/06/03 06:07:03;;;;;;;2.40;1.35;;;12.40;97.30;;;;;;5037635;28;20482;-60
2023/06/03 06:09:28;;;;;;;2.25;1.23;;;12.50;97.20;;;;;;5037502;28;20405;-61
2023/06/03 06:11:54;;;;;;;3.10;1.30;;;12.60;97.10;;;;;;5035539;28;20041;-62
2023/06/03 06:14:20;;;;;;;1.83;1.30;;;12.70;96.90;;;;;;5029107;28;20157;-61
2023/06/03 06:16:46;;;;;;;2.83;1.30;;;12.80;96.40;;;;;;5048429;28;20044;-60
2023/06/03 06:19:12;;;;;;;4.05;1.35;;;13.00;96.20;;;;;;5034799;28;20176;-61
2023/06/03 06:21:38;;;;;;;3.20;1.30;;;13.10;95.90;;;;;;5040525;28;20501;-60
2023/06/03 06:24:04;;;;;;;1.88;1.27;;;13.20;95.70;;;;;;5034164;28;20389;-60
2023/06/03 06:26:30;;;;;;;2.08;1.40;;;13.30;95.50;;;;;;5029599;28;20167;-61
2023/06/03 06:28:55;;;;;;;1.83;1.20;;;13.40;95.10;;;;;;5007233;28;20481;-61
2023/06/03 06:31:21;;;;;;;2.70;1.20;;;13.50;94.70;;;;;;5029726;28;20053;-61
2023/06/03 06:33:47;;;;;;;3.28;1.00;;;13.60;94.30;;;;;;5021746;28;20874;-60
2023/06/03 06:36:42;;;;;;;2.15;1.35;;;13.70;94.10;;;;;;5014845;28;20060;-61
2023/06/03 06:39:43;;;;;;;2.88;1.20;;;13.90;93.60;;;;;;5033053;28;20040;-62
2023/06/03 06:42:15;;;;;;;2.22;0.93;;;14.00;92.90;;;;;;5026003;28;20048;-62
2023/06/03 06:44:46;;;;;;;2.57;1.10;;;14.20;92.30;;;;;;5032122;28;20048;-62
2023/06/03 06:47:15;;;;;;;1.75;0.95;;;14.30;91.80;;;;;;5018209;28;20583;-62
2023/06/03 06:49:40;;;;;;;2.25;1.15;;;14.50;91.10;;;;;;5031921;28;20091;-61
2023/06/03 06:52:09;;;;;;;2.20;1.15;;;14.60;90.80;;;;;;5029485;28;20120;-60
2023/06/03 06:54:35;;;;;;;3.95;1.20;;;14.70;90.10;;;;;;5031625;28;20049;-60
2023/06/03 06:57:01;;;;;;;3.92;1.30;;;14.80;89.30;;;;;;5035484;28;20037;-60
2023/06/03 06:59:27;;;;;;;1.33;0.95;;;15.00;88.40;;;;;;5029369;28;20084;-62
2023/06/03 07:01:52;;;;;;;4.15;1.08;;;15.10;88.30;;;;;;5027959;28;20071;-62
2023/06/03 07:04:18;;;;;;;1.58;1.10;;;15.20;87.00;;;;;;5014769;28;20045;-59
2023/06/03 07:06:44;;;;;;;1.33;1.00;;;15.30;85.70;;;;;;5030996;28;20039;-60
2023/06/03 07:09:09;;;;;;;4.15;1.10;;;15.50;84.50;;;;;;5034152;28;20040;-60
2023/06/03 07:11:46;;;;;;;2.67;1.10;;;15.60;84.00;;;;;;5014858;28;20053;-60
2023/06/03 07:14:13;;;;;;;1.75;1.10;;;15.80;83.80;;;;;;5033979;28;20448;-60
2023/06/03 07:16:41;;;;;;;3.40;1.08;;;15.90;82.60;;;;;;5032798;28;20095;-61
2023/06/03 07:19:07;;;;;;;4.88;1.08;;;16.10;81.30;;;;;;5030036;28;20051;-61
2023/06/03 07:21:35;;;;;;;4.78;1.20;;;16.20;80.50;;;;;;5026100;28;20041;-61
2023/06/03 07:24:01;;;;;;;1.48;1.00;;;16.30;79.20;;;;;;5030795;28;20124;-61
2023/06/03 07:26:28;;;;;;;1.75;0.90;;;16.20;77.40;;;;;;5026843;28;20499;-63
2023/06/03 07:28:56;;;;;;;3.83;1.15;;;16.20;77.20;;;;;;5032043;28;20052;-61
2023/06/03 07:31:22;;;;;;;1.05;0.95;;;16.20;77.30;;;;;;5009570;28;20113;-63
2023/06/03 07:33:52;;;;;;;2.95;1.25;;;16.20;76.90;;;;;;5023580;28;20041;-60
2023/06/03 07:36:20;;;;;;;2.03;1.00;;;16.10;76.40;;;;;;5022439;28;20044;-62
2023/06/03 07:39:06;;;;;;;3.03;1.20;;;16.10;76.60;;;;;;5030576;28;20056;-63
2023/06/03 07:41:43;;;;;;;3.33;1.17;;;16.00;76.70;;;;;;5032387;28;20420;-62
2023/06/03 07:44:11;;;;;;;1.52;1.20;;;16.10;76.10;;;;;;5030198;28;20041;-61
2023/06/03 07:46:45;;;;;;;1.45;0.98;;;16.10;75.90;;;;;;5027013;28;20501;-63
2023/06/03 07:49:14;;;;;;;3.17;1.00;;;16.00;75.10;;;;;;5026878;28;20060;-62
2023/06/03 07:51:49;;;;;;;4.30;1.20;;;16.00;74.90;;;;;;5027075;28;20071;-62
2023/06/03 07:54:15;;;;;;;2.63;1.40;;;16.00;74.70;;;;;;5027676;28;20041;-61
2023/06/03 07:56:42;;;;;;;2.38;1.20;;;16.00;74.80;;;;;;5035217;28;20041;-61
2023/06/03 07:59:12;;;;;;;3.92;1.63;;;15.90;74.50;;;;;;5028585;28;20044;-61
2023/06/03 08:01:39;;;;;;;1.40;1.00;;;16.00;74.70;;;;;;5011506;28;20045;-61
2023/06/03 08:04:19;;;;;;;3.05;1.08;;;16.00;75.30;;;;;;5029398;28;20366;-62
2023/06/03 08:06:46;;;;;;;3.08;1.20;;;16.10;75.00;;;;;;5033741;28;20612;-61
2023/06/03 08:09:37;;;;;;;2.05;1.30;;;16.30;75.70;;;;;;5035280;28;20119;-62
2023/06/03 08:12:05;;;;;;;3.30;1.20;;;16.50;76.10;;;;;;5026854;28;20119;-62
2023/06/03 08:14:34;;;;;;;2.00;1.08;;;16.80;75.80;;;;;;5031688;28;20081;-61
2023/06/03 08:17:27;;;;;;;1.92;1.00;;;17.00;75.90;;;;;;5032205;28;20071;-61
2023/06/03 08:19:53;;;;;;;;;;;17.20;75.70;;;;;;5035508;28;20112;-61
2023/06/03 08:22:41;;;;;;;1.58;1.00;;;17.40;76.50;;;;;;5000678;28;20008;-62
2023/06/03 08:25:07;;;;;;;3.05;1.25;;;17.50;74.70;;;;;;5034131;28;20037;-63
2023/06/03 08:27:35;;;;;;;2.00;1.00;;;17.70;74.10;;;;;;5033439;28;20175;-61
2023/06/03 08:30:03;;;;;;;2.75;1.17;;;17.80;73.10;;;;;;5033080;28;20489;-62
2023/06/03 08:32:32;;;;;;;3.60;1.13;;;17.90;72.20;;;;;;5032863;28;20046;-62
2023/06/03 08:34:58;;;;;;;5.38;1.13;;;18.00;72.40;;;;;;5031528;28;20037;-61
2023/06/03 08:37:25;;;;;;;4.40;0.90;;;18.20;72.00;;;;;;5021279;28;21069;-61
2023/06/03 08:39:50;;;;;;;5.88;1.00;;;18.30;71.40;;;;;;5006154;28;20053;-61
2023/06/03 08:42:22;;;;;;;2.30;1.05;;;18.40;70.70;;;;;;5030666;28;22104;-61
2023/06/03 08:44:57;;;;;;;1.00;0.90;;;18.50;69.60;;;;;;5032145;28;20201;-62
2023/06/03 08:47:45;;;;;;;2.03;0.90;;;18.60;68.10;;;;;;5032244;28;20041;-62
2023/06/03 08:50:12;;;;;;;1.77;0.82;;;18.70;67.90;;;;;;5031605;28;20563;-61
2023/06/03 08:52:39;;;;;;;2.75;1.15;;;18.80;67.50;;;;;;5028053;28;20056;-61
2023/06/03 08:55:06;;;;;;;3.13;1.17;;;18.90;67.40;;;;;;5031570;28;20045;-61
2023/06/03 08:57:34;;;;;;;2.20;0.95;;;19.00;67.10;;;;;;5035582;28;20041;-62
2023/06/03 09:00:01;;;;;;;1.23;0.80;;;19.10;67.00;;;;;;5036392;28;20056;-63
2023/06/03 09:02:29;;;;;;;1.75;1.00;;;19.30;67.60;;;;;;5036083;28;20505;-63
2023/06/03 09:04:56;;;;;;;1.90;0.98;;;19.40;65.20;;;;;;5034481;28;20068;-62
2023/06/03 09:07:23;;;;;;;2.47;1.10;;;19.50;64.20;;;;;;5036623;28;20036;-60
2023/06/03 09:09:53;;;;;;;5.88;1.33;;;19.60;64.10;;;;;;5018616;28;20057;-63
2023/06/03 09:12:19;;;;;;;4.05;0.98;;;19.60;62.80;;;;;;5037079;28;20468;-61
2023/06/03 09:14:46;;;;;;;2.50;0.93;;;19.70;61.80;;;;;;5051651;28;20493;-61
2023/06/03 09:17:12;;;;;;;4.45;0.77;;;19.70;60.10;;;;;;5035447;28;20049;-63
2023/06/03 09:19:39;;;;;;;7.53;1.02;;;19.70;59.00;;;;;;5034999;28;20052;-61
2023/06/03 09:22:05;;;;;;;4.70;0.77;;;19.80;58.90;;;;;;5036745;28;20493;-63
2023/06/03 09:24:31;;;;;;;2.08;0.90;;;19.80;58.80;;;;;;5033387;28;20084;-61
2023/06/03 09:26:58;;;;;;;1.70;0.98;;;19.80;58.80;;;;;;5037219;28;20060;-63
2023/06/03 09:29:24;;;;;;;1.92;0.93;;;20.00;58.80;;;;;;5037035;28;20044;-63
2023/06/03 09:31:49;;;;;;;1.27;0.98;;;20.10;58.10;;;;;;5034093;28;20064;-61
2023/06/03 09:34:16;;;;;;;1.45;0.93;;;20.20;57.80;;;;;;5036849;28;20156;-61
2023/06/03 09:36:47;;;;;;;3.78;0.85;;;20.30;57.90;;;;;;5034045;28;20553;-62
2023/06/03 09:39:17;;;;;;;4.22;0.90;;;20.20;57.10;;;;;;5037008;28;20043;-61
2023/06/03 09:41:44;;;;;;;3.90;0.90;;;20.30;57.20;;;;;;5030132;28;20077;-61
2023/06/03 09:44:11;;;;;;;1.08;0.80;;;20.40;56.90;;;;;;5029732;28;20045;-61
2023/06/03 09:46:38;;;;;;;3.58;1.00;;;20.50;56.50;;;;;;5018992;28;20041;-62
2023/06/03 09:49:11;;;;;;;2.45;0.98;;;20.60;56.60;;;;;;5035253;28;20029;-63
2023/06/03 09:51:43;;;;;;;3.42;1.00;;;20.60;56.60;;;;;;5022182;28;20048;-63
2023/06/03 09:54:27;;;;;;;1.90;1.00;;;20.70;55.80;;;;;;5034612;28;22065;-61
2023/06/03 09:56:53;;;;;;;3.83;0.82;;;20.80;56.20;;;;;;5035469;28;20409;-62
2023/06/03 09:59:21;;;;;;;1.05;0.80;;;20.90;56.50;;;;;;5035594;28;20056;-61
2023/06/03 10:01:48;;;;;;;1.40;0.80;;;21.10;57.00;;;;;;5033376;28;20056;-61
2023/06/03 10:04:22;;;;;;;2.65;1.05;;;21.30;56.80;;;;;;5018590;28;20099;-61
2023/06/03 10:07:11;;;;;;;4.53;1.10;;;21.40;55.90;;;;;;5017283;28;20460;-62
2023/06/03 10:09:37;;;;;;;2.05;0.90;;;21.60;56.50;;;;;;5033387;28;20045;-61
2023/06/03 10:12:05;;;;;;;2.20;0.85;;;21.60;55.40;;;;;;5034163;28;20512;-61
2023/06/03 10:14:31;;;;;;;1.48;1.00;;;21.70;54.60;;;;;;5051874;28;20048;-61
2023/06/03 10:17:07;;;;;;;3.53;0.80;;;21.70;54.80;;;;;;5033948;28;20052;-61
2023/06/03 10:19:38;;;;;;;2.90;1.00;;;21.70;54.20;;;;;;5030259;28;20044;-64
2023/06/03 10:22:05;;;;;;;2.65;1.20;;;21.80;55.10;;;;;;5032906;28;20182;-62
2023/06/03 10:24:51;;;;;;;1.85;0.90;;;21.80;53.80;;;;;;5034022;28;20036;-61
2023/06/03 10:27:17;;;;;;;1.20;0.80;;;21.80;54.20;;;;;;5034046;28;20053;-63
2023/06/03 10:29:44;;;;;;;3.75;1.00;;;21.90;53.40;;;;;;5037349;28;20516;-61
2023/06/03 10:32:16;;;;;;;3.35;1.13;;;21.90;53.60;;;;;;5030375;28;20072;-62
2023/06/03 10:34:47;;;;;;;3.38;1.02;;;22.00;53.30;;;;;;5033009;28;20053;-62
2023/06/03 10:37:14;;;;;;;2.97;0.90;;;22.10;53.70;;;;;;5034718;28;20045;-63
2023/06/03 10:39:43;;;;;;;4.20;0.90;;;22.20;53.10;;;;;;5033166;28;20041;-62
2023/06/03 10:42:11;;;;;;;4.25;0.90;;;22.20;53.10;;;;;;5049989;28;20037;-63
2023/06/03 10:44:37;;;;;;;2.05;0.80;;;22.20;52.90;;;;;;5037720;28;20523;-61
2023/06/03 10:47:28;;;;;;;2.88;0.90;;;22.40;53.30;;;;;;5004257;28;20136;-62
2023/06/03 10:50:00;;;;;;;1.85;0.80;;;22.50;53.10;;;;;;5022816;28;20120;-62
2023/06/03 10:52:47;;;;;;;5.28;1.00;;;22.40;52.80;;;;;;5030880;28;20048;-63
2023/06/03 10:55:25;;;;;;;2.25;1.08;;;22.50;53.60;;;;;;5033422;28;20051;-61
2023/06/03 10:58:04;;;;;;;2.42;1.00;;;22.60;54.00;;;;;;5032381;28;20060;-62
2023/06/03 11:00:57;;;;;;;3.00;0.90;;;22.70;53.60;;;;;;5036706;28;20390;-62
2023/06/03 11:03:31;;;;;;;2.15;0.90;;;22.90;53.20;;;;;;5031872;28;20084;-63
2023/06/03 11:06:19;;;;;;;3.63;0.90;;;22.90;52.50;;;;;;5034680;28;20065;-61
2023/06/03 11:09:16;;;;;;;1.35;0.80;;;23.00;53.00;;;;;;5031624;28;21655;-62
2023/06/03 11:11:42;;;;;;;2.75;0.80;;;23.20;53.70;;;;;;5030667;28;20060;-62
2023/06/03 11:14:34;;;;;;;1.52;0.88;;;23.30;52.80;;;;;;5029468;28;20382;-64
2023/06/03 11:16:59;;;;;;;2.67;0.70;;;23.40;52.20;;;;;;5025789;28;20057;-62
2023/06/03 11:19:33;;;;;;;2.85;1.10;;;23.50;52.40;;;;;;5019233;28;20045;-62
2023/06/03 11:22:00;;;;;;;3.65;0.80;;;23.60;51.70;;;;;;5028396;28;20128;-62
2023/06/03 11:24:38;;;;;;;1.58;0.88;;;23.60;50.90;;;;;;5029414;28;20516;-64
2023/06/03 11:27:30;;;;;;;1.52;1.00;;;23.60;50.80;;;;;;5026725;28;20164;-63
2023/06/03 11:30:00;;;;;;;2.03;0.90;;;23.70;49.40;;;;;;5027975;28;20037;-62
2023/06/03 11:32:27;;;;;;;3.33;0.77;;;23.70;51.00;;;;;;5024175;28;20431;-61
2023/06/03 11:34:59;;;;;;;1.77;0.93;;;23.80;50.10;;;;;;5028403;28;20491;-61
2023/06/03 11:37:55;;;;;;;4.60;0.90;;;23.90;49.80;;;;;;5023011;28;20064;-62
2023/06/03 11:40:21;;;;;;;3.22;0.88;;;24.10;49.70;;;;;;5030183;28;20056;-62
2023/06/03 11:42:50;;;;;;;2.65;0.95;;;24.10;49.90;;;;;;5023463;28;20045;-61
2023/06/03 11:45:24;;;;;;;4.35;1.77;;;24.20;49.90;;;;;;5023614;28;20052;-61
2023/06/03 11:48:03;;;;;;;5.03;1.00;;;24.30;49.80;;;;;;5026078;28;20048;-61
2023/06/03 11:50:30;;;;;;;1.73;1.00;;;24.40;50.20;;;;;;5016336;28;20044;-60
2023/06/03 11:52:56;;;;;;;2.28;0.98;;;24.60;50.40;;;;;;5016015;28;20150;-60
2023/06/03 11:55:30;;;;;;;1.38;0.80;;;24.60;49.60;;;;;;5023186;28;20496;-61
2023/06/03 11:58:07;;;;;;;3.25;0.93;;;24.70;49.00;;;;;;5028866;28;20045;-60
2023/06/03 12:00:33;;;;;;;3.53;1.10;;;24.70;49.00;;;;;;5026549;28;20491;-61
2023/06/03 12:02:59;;;;;;;1.83;0.88;;;24.70;48.70;;;;;;5029632;28;20124;-60
2023/06/03 12:05:25;;;;;;;29.65;2.30;;;24.70;49.30;;;;;;5030515;28;20052;-60
2023/06/03 12:07:58;;;;;;;25.08;2.15;;;24.70;50.40;;;;;;5030408;28;20218;-61
2023/06/03 12:10:24;;;;;;;25.63;2.30;;;24.80;49.50;;;;;;5029821;28;20905;-61
2023/06/03 12:12:54;;;;;;;2.95;1.25;;;24.70;49.50;;;;;;5028705;28;20072;-61
2023/06/03 12:15:20;;;;;;;4.90;1.13;;;24.60;49.50;;;;;;5030972;28;20049;-61
2023/06/03 12:17:47;;;;;;;12.90;1.67;;;24.50;49.90;;;;;;5031822;28;20041;-61
2023/06/03 12:20:25;;;;;;;7.22;1.30;;;24.30;49.60;;;;;;5028953;28;20506;-61
2023/06/03 12:23:05;;;;;;;4.13;1.20;;;24.20;51.00;;;;;;5025537;28;20680;-61
2023/06/03 12:25:34;;;;;;;1.17;0.85;;;24.10;51.70;;;;;;5029397;28;20063;-61
2023/06/03 12:28:27;;;;;;;2.50;1.10;;;24.00;52.10;;;;;;5027556;28;20045;-61
2023/06/03 12:30:53;;;;;;;1.65;0.90;;;24.00;51.50;;;;;;5028081;28;20146;-60
2023/06/03 12:33:19;;;;;;;2.63;1.05;;;24.00;51.70;;;;;;5031261;28;20050;-60
2023/06/03 12:35:55;;;;;;;2.83;1.05;;;23.90;52.20;;;;;;5036439;28;20140;-61
2023/06/03 12:38:21;;;;;;;2.53;1.23;;;24.00;52.20;;;;;;5035428;28;20058;-61
2023/06/03 12:40:47;;;;;;;3.70;0.93;;;24.10;52.10;;;;;;5036237;28;20556;-61
2023/06/03 12:43:21;;;;;;;1.92;0.95;;;24.20;52.20;;;;;;5035832;28;20049;-61
2023/06/03 12:45:47;;;;;;;2.80;1.15;;;24.30;51.60;;;;;;5049994;28;20193;-59
2023/06/03 12:48:29;;;;;;;3.63;1.08;;;24.50;52.00;;;;;;5033961;28;20037;-61
2023/06/03 12:50:55;;;;;;;2.60;1.00;;;24.70;51.60;;;;;;5035243;28;20044;-61
2023/06/03 12:53:21;;;;;;;3.03;1.00;;;24.80;51.50;;;;;;5026293;28;20044;-61
2023/06/03 12:55:47;;;;;;;1.55;1.00;;;24.80;50.30;;;;;;5035250;28;20599;-61
2023/06/03 12:58:14;;;;;;;4.22;1.02;;;24.70;50.50;;;;;;5023228;28;20098;-60
2023/06/03 13:00:39;;;;;;;3.65;0.90;;;24.70;50.20;;;;;;5035167;28;20131;-61